createdAt,value
2018-07-21T00:00:39.661Z,16.46
2018-07-21T00:03:44.034Z,16.43
2018-07-21T00:06:48.404Z,16.30
2018-07-21T00:09:52.709Z,16.17
2018-07-21T00:12:57.105Z,16.06
2018-07-21T00:16:02.419Z,16.00
2018-07-21T00:19:06.965Z,15.94
2018-07-21T00:22:11.252Z,16.00
2018-07-21T00:25:15.674Z,16.02
2018-07-21T00:28:19.995Z,16.00
2018-07-21T00:31:24.297Z,15.88
2018-07-21T00:34:28.608Z,15.76
2018-07-21T00:37:32.875Z,15.73
2018-07-21T00:40:37.167Z,15.73
2018-07-21T00:43:41.447Z,15.71
2018-07-21T00:46:45.855Z,15.72
2018-07-21T00:49:50.293Z,15.79
2018-07-21T00:52:54.784Z,15.82
2018-07-21T00:55:59.098Z,15.80
2018-07-21T00:59:03.508Z,15.80
2018-07-21T01:02:07.852Z,15.77
2018-07-21T01:05:12.243Z,15.66
2018-07-21T01:08:16.654Z,15.54
2018-07-21T01:11:20.973Z,15.43
2018-07-21T01:14:25.420Z,15.37
2018-07-21T01:17:29.977Z,15.33
2018-07-21T01:20:34.363Z,15.31
2018-07-21T01:23:38.801Z,15.24
2018-07-21T01:26:43.212Z,15.30
2018-07-21T01:29:47.555Z,15.28
2018-07-21T01:32:52.048Z,15.22
2018-07-21T01:35:56.483Z,15.17
2018-07-21T01:39:00.959Z,15.12
2018-07-21T01:42:05.332Z,15.07
2018-07-21T01:45:09.733Z,15.07
2018-07-21T01:48:14.135Z,15.07
2018-07-21T01:51:18.590Z,15.14
2018-07-21T01:54:23.026Z,15.19
2018-07-21T01:57:27.578Z,15.24
2018-07-21T02:00:31.871Z,15.21
2018-07-21T02:03:36.375Z,15.14
2018-07-21T02:06:40.768Z,15.09
2018-07-21T02:09:45.639Z,15.04
2018-07-21T02:12:49.947Z,14.96
2018-07-21T02:15:54.249Z,14.93
2018-07-21T02:18:58.793Z,14.90
2018-07-21T02:22:03.248Z,14.85
2018-07-21T02:25:07.988Z,14.77
2018-07-21T02:28:12.381Z,14.70
2018-07-21T02:31:16.977Z,14.68
2018-07-21T02:34:21.240Z,14.65
2018-07-21T02:37:25.532Z,14.71
2018-07-21T02:40:29.903Z,14.74
2018-07-21T02:43:34.214Z,14.72
2018-07-21T02:46:38.530Z,14.69
2018-07-21T02:49:43.067Z,14.65
2018-07-21T02:52:47.487Z,14.65
2018-07-21T02:55:51.883Z,14.66
2018-07-21T02:58:56.636Z,14.64
2018-07-21T03:02:01.187Z,14.59
2018-07-21T03:05:05.776Z,14.53
2018-07-21T03:08:10.193Z,14.50
2018-07-21T03:11:14.811Z,14.51
2018-07-21T03:14:19.461Z,14.54
2018-07-21T03:17:23.892Z,14.55
2018-07-21T03:20:28.361Z,14.60
2018-07-21T03:23:32.713Z,14.62
2018-07-21T03:26:37.044Z,14.58
2018-07-21T03:29:41.453Z,14.54
2018-07-21T03:32:46.145Z,14.61
2018-07-21T03:35:50.661Z,14.64
2018-07-21T03:38:55.080Z,14.70
2018-07-21T03:41:59.598Z,14.84
2018-07-21T03:45:04.134Z,15.02
2018-07-21T03:48:08.552Z,15.15
2018-07-21T03:51:12.993Z,15.30
2018-07-21T03:54:17.351Z,15.51
2018-07-21T03:57:21.541Z,15.67
2018-07-21T04:00:25.934Z,15.82
2018-07-21T04:03:30.412Z,15.93
2018-07-21T04:06:34.796Z,15.84
2018-07-21T04:09:39.206Z,15.61
2018-07-21T04:12:43.829Z,15.41
2018-07-21T04:15:48.357Z,15.30
2018-07-21T04:18:52.835Z,15.27
2018-07-21T04:21:57.295Z,15.29
2018-07-21T04:25:01.629Z,15.34
2018-07-21T04:28:06.128Z,15.39
2018-07-21T04:31:10.453Z,15.37
2018-07-21T04:34:14.841Z,15.40
2018-07-21T04:37:19.266Z,15.39
2018-07-21T04:40:23.745Z,15.39
2018-07-21T04:43:28.243Z,15.44
2018-07-21T04:46:32.675Z,15.54
2018-07-21T04:49:37.035Z,15.61
2018-07-21T04:52:41.509Z,15.72
2018-07-21T04:55:45.931Z,15.84
2018-07-21T04:58:50.323Z,15.93
2018-07-21T05:01:54.643Z,16.01
2018-07-21T05:04:59.077Z,16.08
2018-07-21T05:08:03.855Z,16.18
2018-07-21T05:11:08.320Z,16.28
2018-07-21T05:14:12.605Z,16.40
2018-07-21T05:17:16.954Z,16.52
2018-07-21T05:20:21.310Z,16.62
2018-07-21T05:23:25.709Z,16.67
2018-07-21T05:26:30.045Z,16.74
2018-07-21T05:29:34.581Z,16.88
2018-07-21T05:32:38.923Z,17.04
2018-07-21T05:35:43.419Z,17.20
2018-07-21T05:38:48.032Z,17.35
2018-07-21T05:41:52.578Z,17.49
2018-07-21T05:44:58.357Z,17.68
2018-07-21T05:48:03.015Z,17.83
2018-07-21T05:51:07.650Z,17.98
2018-07-21T05:54:12.345Z,18.07
2018-07-21T05:57:16.885Z,18.16
2018-07-21T06:00:21.359Z,18.30
2018-07-21T06:03:25.945Z,18.40
2018-07-21T06:06:30.379Z,18.52
2018-07-21T06:09:34.811Z,18.64
2018-07-21T06:12:39.386Z,18.79
2018-07-21T06:15:43.807Z,18.85
2018-07-21T06:18:48.370Z,18.96
2018-07-21T06:21:52.801Z,19.08
2018-07-21T06:24:57.242Z,19.18
2018-07-21T06:28:01.628Z,19.22
2018-07-21T06:31:06.134Z,19.36
2018-07-21T06:34:10.732Z,19.42
2018-07-21T06:37:15.152Z,19.49
2018-07-21T06:40:19.681Z,19.60
2018-07-21T06:43:24.202Z,19.72
2018-07-21T06:46:28.530Z,19.74
2018-07-21T06:49:32.925Z,19.89
2018-07-21T06:52:37.509Z,19.96
2018-07-21T06:55:42.048Z,20.03
2018-07-21T06:58:46.462Z,20.19
2018-07-21T07:01:51.253Z,20.30
2018-07-21T07:04:55.575Z,20.39
2018-07-21T07:08:00.138Z,20.52
2018-07-21T07:11:04.755Z,20.63
2018-07-21T07:14:09.195Z,20.72
2018-07-21T07:17:14.095Z,20.82
2018-07-21T07:20:18.449Z,20.96
2018-07-21T07:23:22.818Z,21.01
2018-07-21T07:26:27.268Z,21.05
2018-07-21T07:29:34.742Z,21.18
2018-07-21T07:32:39.121Z,21.28
2018-07-21T07:35:43.480Z,21.39
2018-07-21T07:38:47.935Z,21.51
2018-07-21T07:41:52.372Z,21.60
2018-07-21T07:44:56.772Z,21.52
2018-07-21T07:48:01.086Z,21.57
2018-07-21T07:51:05.592Z,21.68
2018-07-21T07:54:09.938Z,21.76
2018-07-21T07:57:14.341Z,21.85
2018-07-21T08:00:18.764Z,22.02
2018-07-21T08:03:23.080Z,22.23
2018-07-21T08:06:27.339Z,22.44
2018-07-21T08:09:31.727Z,22.45
2018-07-21T08:12:36.183Z,22.48
2018-07-21T08:15:40.476Z,22.49
2018-07-21T08:18:44.757Z,22.65
2018-07-21T08:21:49.128Z,22.73
2018-07-21T08:24:53.590Z,22.87
2018-07-21T08:27:58.297Z,23.02
2018-07-21T08:31:02.781Z,23.12
2018-07-21T08:34:07.213Z,23.27
2018-07-21T08:37:11.662Z,23.14
2018-07-21T08:40:16.033Z,23.21
2018-07-21T08:43:20.293Z,23.43
2018-07-21T08:46:24.749Z,23.49
2018-07-21T08:49:29.249Z,23.57
2018-07-21T08:52:33.620Z,23.54
2018-07-21T08:55:38.178Z,23.49
2018-07-21T08:58:42.504Z,23.61
2018-07-21T09:01:46.822Z,23.66
2018-07-21T09:04:51.116Z,23.81
2018-07-21T09:07:55.474Z,23.95
2018-07-21T09:10:59.852Z,24.21
2018-07-21T09:14:04.179Z,24.36
2018-07-21T09:17:08.489Z,24.32
2018-07-21T09:20:12.781Z,24.31
2018-07-21T09:23:17.128Z,24.41
2018-07-21T09:26:21.428Z,24.55
2018-07-21T09:29:25.902Z,24.62
2018-07-21T09:32:30.209Z,24.75
2018-07-21T09:35:34.506Z,24.88
2018-07-21T09:38:38.933Z,24.98
2018-07-21T09:41:43.257Z,25.04
2018-07-21T09:44:47.581Z,25.25
2018-07-21T09:47:52.037Z,25.18
2018-07-21T09:50:56.280Z,25.19
2018-07-21T09:54:00.680Z,25.24
2018-07-21T09:57:05.149Z,25.23
2018-07-21T10:00:11.519Z,25.29
2018-07-21T10:03:16.021Z,25.36
2018-07-21T10:06:20.404Z,25.44
2018-07-21T10:09:24.772Z,25.50
2018-07-21T10:12:29.716Z,25.59
2018-07-21T10:15:34.198Z,25.47
2018-07-21T10:18:38.603Z,25.52
2018-07-21T10:21:43.101Z,25.44
2018-07-21T10:24:53.021Z,25.56
2018-07-21T10:28:02.810Z,25.63
2018-07-21T10:31:07.300Z,25.57
2018-07-21T10:34:12.347Z,25.64
2018-07-21T10:37:16.762Z,25.76
2018-07-21T10:40:21.132Z,25.85
2018-07-21T10:43:25.492Z,25.91
2018-07-21T10:46:30.016Z,26.03
2018-07-21T10:49:34.472Z,26.32
2018-07-21T10:52:39.048Z,26.49
2018-07-21T10:55:43.410Z,26.67
2018-07-21T10:58:47.873Z,26.83
2018-07-21T11:01:52.252Z,26.88
2018-07-21T11:04:56.729Z,27.07
2018-07-21T11:08:01.212Z,27.13
2018-07-21T11:11:05.536Z,27.20
2018-07-21T11:14:09.869Z,26.96
2018-07-21T11:17:14.278Z,26.92
2018-07-21T11:20:18.855Z,26.80
2018-07-21T11:23:23.159Z,26.87
2018-07-21T11:26:27.619Z,26.80
2018-07-21T11:29:31.883Z,26.82
2018-07-21T11:32:36.233Z,26.92
2018-07-21T11:35:40.649Z,27.16
2018-07-21T11:38:45.035Z,26.99
2018-07-21T11:41:49.467Z,27.09
2018-07-21T11:44:53.871Z,27.13
2018-07-21T11:47:58.239Z,27.20
2018-07-21T11:51:03.141Z,27.18
2018-07-21T11:54:07.490Z,27.37
2018-07-21T11:57:11.919Z,27.29
2018-07-21T12:00:16.270Z,27.47
2018-07-21T12:03:21.028Z,27.48
2018-07-21T12:06:25.417Z,27.70
2018-07-21T12:09:29.725Z,27.86
2018-07-21T12:12:34.105Z,27.75
2018-07-21T12:15:38.503Z,27.50
2018-07-21T12:18:42.760Z,27.56
2018-07-21T12:21:47.231Z,27.57
2018-07-21T12:24:51.756Z,27.34
2018-07-21T12:27:56.244Z,27.19
2018-07-21T12:31:00.604Z,27.16
2018-07-21T12:34:04.935Z,27.20
2018-07-21T12:37:09.411Z,27.06
2018-07-21T12:40:13.765Z,27.11
2018-07-21T12:43:18.143Z,27.08
2018-07-21T12:46:22.720Z,26.86
2018-07-21T12:49:27.143Z,26.88
2018-07-21T12:52:31.568Z,26.98
2018-07-21T12:55:35.931Z,27.04
2018-07-21T12:58:40.297Z,27.31
2018-07-21T13:01:44.588Z,27.28
2018-07-21T13:04:49.085Z,27.18
2018-07-21T13:07:53.477Z,27.24
2018-07-21T13:10:57.964Z,27.27
2018-07-21T13:14:02.352Z,27.32
2018-07-21T13:17:06.685Z,27.30
2018-07-21T13:20:11.098Z,27.25
2018-07-21T13:23:15.565Z,27.22
2018-07-21T13:26:19.871Z,27.23
2018-07-21T13:29:24.287Z,27.28
2018-07-21T13:32:28.697Z,27.16
2018-07-21T13:35:33.156Z,26.90
2018-07-21T13:38:37.555Z,26.77
2018-07-21T13:41:41.986Z,26.73
2018-07-21T13:44:46.439Z,26.74
2018-07-21T13:47:50.977Z,26.74
2018-07-21T13:50:55.341Z,26.68
2018-07-21T13:53:59.898Z,26.67
2018-07-21T13:57:04.122Z,26.58
2018-07-21T14:00:08.423Z,26.52
2018-07-21T14:03:12.962Z,26.47
2018-07-21T14:06:17.443Z,26.65
2018-07-21T14:09:21.855Z,26.89
2018-07-21T14:12:26.198Z,26.74
2018-07-21T14:15:30.458Z,26.57
2018-07-21T14:18:35.002Z,26.49
2018-07-21T14:21:39.331Z,26.34
2018-07-21T14:24:43.996Z,26.17
2018-07-21T14:27:48.293Z,26.00
2018-07-21T14:30:52.832Z,25.98
2018-07-21T14:33:57.503Z,26.00
2018-07-21T14:37:02.211Z,26.09
2018-07-21T14:40:06.541Z,26.14
2018-07-21T14:43:11.082Z,26.17
2018-07-21T14:46:15.578Z,26.23
2018-07-21T14:49:20.080Z,26.29
2018-07-21T14:52:24.319Z,26.32
2018-07-21T14:55:28.740Z,26.36
2018-07-21T14:58:33.122Z,26.26
2018-07-21T15:01:37.622Z,26.28
2018-07-21T15:04:41.988Z,26.39
2018-07-21T15:07:46.293Z,26.34
2018-07-21T15:10:50.624Z,26.17
2018-07-21T15:13:54.932Z,26.01
2018-07-21T15:16:59.256Z,25.84
2018-07-21T15:20:03.760Z,25.74
2018-07-21T15:23:08.143Z,25.99
2018-07-21T15:26:12.468Z,26.34
2018-07-21T15:29:16.814Z,26.71
2018-07-21T15:32:21.133Z,27.27
2018-07-21T15:35:25.421Z,27.54
2018-07-21T15:38:30.524Z,27.39
2018-07-21T15:41:35.014Z,27.29
2018-07-21T15:44:39.277Z,27.29
2018-07-21T15:47:43.703Z,27.40
2018-07-21T15:50:47.985Z,27.51
2018-07-21T15:53:52.402Z,27.08
2018-07-21T15:56:56.759Z,26.83
2018-07-21T16:00:01.153Z,26.44
2018-07-21T16:03:05.300Z,26.33
2018-07-21T16:06:09.664Z,26.29
2018-07-21T16:09:14.132Z,26.58
2018-07-21T16:12:18.579Z,26.79
2018-07-21T16:15:22.975Z,26.52
2018-07-21T16:18:27.309Z,26.12
2018-07-21T16:21:31.610Z,25.88
2018-07-21T16:24:36.000Z,25.78
2018-07-21T16:27:40.442Z,25.87
2018-07-21T16:30:44.792Z,25.77
2018-07-21T16:33:49.215Z,25.66
2018-07-21T16:36:53.723Z,25.55
2018-07-21T16:39:58.154Z,25.42
2018-07-21T16:43:02.577Z,25.32
2018-07-21T16:46:06.868Z,25.26
2018-07-21T16:49:11.089Z,25.18
2018-07-21T16:52:15.380Z,25.18
2018-07-21T16:55:19.712Z,25.14
2018-07-21T16:58:24.187Z,25.18
2018-07-21T17:01:28.790Z,25.19
2018-07-21T17:04:33.268Z,25.24
2018-07-21T17:07:38.065Z,25.25
2018-07-21T17:10:42.844Z,25.26
2018-07-21T17:13:47.429Z,25.27
2018-07-21T17:16:51.963Z,25.21
2018-07-21T17:19:56.394Z,25.16
2018-07-21T17:23:01.135Z,25.12
2018-07-21T17:26:05.751Z,25.06
2018-07-21T17:29:10.429Z,25.05
2018-07-21T17:32:14.826Z,25.06
2018-07-21T17:35:19.119Z,25.06
2018-07-21T17:38:23.451Z,25.03
2018-07-21T17:41:27.964Z,24.97
2018-07-21T17:44:32.297Z,24.88
2018-07-21T17:47:36.652Z,24.79
2018-07-21T17:50:41.051Z,24.73
2018-07-21T17:53:45.410Z,24.64
2018-07-21T17:56:49.697Z,24.53
2018-07-21T17:59:54.063Z,24.42
2018-07-21T18:02:58.465Z,24.36
2018-07-21T18:06:02.809Z,24.27
2018-07-21T18:09:08.668Z,24.15
2018-07-21T18:12:13.004Z,24.11
2018-07-21T18:15:17.371Z,24.06
2018-07-21T18:18:21.759Z,24.01
2018-07-21T18:21:26.691Z,23.97
2018-07-21T18:24:31.080Z,23.94
2018-07-21T18:27:35.527Z,23.86
2018-07-21T18:30:39.910Z,23.75
2018-07-21T18:33:44.298Z,23.63
2018-07-21T18:36:48.599Z,23.57
2018-07-21T18:39:52.958Z,23.50
2018-07-21T18:42:57.290Z,23.45
2018-07-21T18:46:01.690Z,23.44
2018-07-21T18:49:06.266Z,23.38
2018-07-21T18:52:10.692Z,23.32
2018-07-21T18:55:15.029Z,23.26
2018-07-21T18:58:19.745Z,23.22
2018-07-21T19:01:24.142Z,23.16
2018-07-21T19:04:28.556Z,23.12
2018-07-21T19:07:33.178Z,23.09
2018-07-21T19:10:37.497Z,23.06
2018-07-21T19:13:41.974Z,23.01
2018-07-21T19:16:46.384Z,22.97
2018-07-21T19:19:56.272Z,22.94
2018-07-21T19:23:00.548Z,22.89
2018-07-21T19:26:10.210Z,22.82
2018-07-21T19:29:14.628Z,22.76
2018-07-21T19:32:24.391Z,22.68
2018-07-21T19:35:30.457Z,22.63
2018-07-21T19:38:35.855Z,22.58
2018-07-21T19:41:45.378Z,22.52
2018-07-21T19:44:49.867Z,22.48
2018-07-21T19:47:54.396Z,22.44
2018-07-21T19:50:58.972Z,22.38
2018-07-21T19:54:03.496Z,22.35
2018-07-21T19:57:08.016Z,22.29
2018-07-21T20:00:12.542Z,22.24
2018-07-21T20:03:17.224Z,22.21
2018-07-21T20:06:21.591Z,22.20
2018-07-21T20:09:26.027Z,22.18
2018-07-21T20:12:30.542Z,22.18
2018-07-21T20:15:35.322Z,22.15
2018-07-21T20:18:39.820Z,22.14
2018-07-21T20:21:44.236Z,22.14
2018-07-21T20:24:48.710Z,22.14
2018-07-21T20:27:53.125Z,22.04
2018-07-21T20:30:57.517Z,21.95
2018-07-21T20:34:01.842Z,21.86
2018-07-21T20:37:06.215Z,21.82
2018-07-21T20:40:10.663Z,21.74
2018-07-21T20:43:15.085Z,21.64
2018-07-21T20:46:19.452Z,21.55
2018-07-21T20:49:23.837Z,21.45
2018-07-21T20:52:28.171Z,21.39
2018-07-21T20:55:32.611Z,21.38
2018-07-21T20:58:37.029Z,21.34
2018-07-21T21:01:41.359Z,21.34
2018-07-21T21:04:45.780Z,21.34
2018-07-21T21:07:50.187Z,21.29
2018-07-21T21:10:54.634Z,21.24
2018-07-21T21:13:58.946Z,21.23
2018-07-21T21:17:03.377Z,21.18
2018-07-21T21:20:07.727Z,21.14
2018-07-21T21:23:12.105Z,21.13
2018-07-21T21:26:16.515Z,21.06
2018-07-21T21:29:21.601Z,21.01
2018-07-21T21:32:25.927Z,20.98
2018-07-21T21:35:30.379Z,20.98
2018-07-21T21:38:34.806Z,20.98
2018-07-21T21:41:39.198Z,20.95
2018-07-21T21:44:43.633Z,20.92
2018-07-21T21:47:47.816Z,20.92
2018-07-21T21:50:52.194Z,20.93
2018-07-21T21:53:56.681Z,20.97
2018-07-21T21:57:00.887Z,21.00
2018-07-21T22:00:09.083Z,20.99
2018-07-21T22:03:13.557Z,20.93
2018-07-21T22:06:17.979Z,20.88
2018-07-21T22:09:22.374Z,20.90
2018-07-21T22:12:26.850Z,20.92
2018-07-21T22:15:31.317Z,20.89
2018-07-21T22:18:35.780Z,20.88
2018-07-21T22:21:40.216Z,20.88
2018-07-21T22:24:44.854Z,20.90
2018-07-21T22:27:49.341Z,20.87
2018-07-21T22:30:53.864Z,20.79
2018-07-21T22:33:58.970Z,20.77
2018-07-21T22:37:03.406Z,20.72
2018-07-21T22:40:07.858Z,20.65
2018-07-21T22:43:12.262Z,20.59
2018-07-21T22:46:16.724Z,20.61
2018-07-21T22:49:21.157Z,20.59
2018-07-21T22:52:25.560Z,20.54
2018-07-21T22:55:29.986Z,20.48
2018-07-21T22:58:34.401Z,20.50
2018-07-21T23:01:38.883Z,20.49
2018-07-21T23:04:43.308Z,20.42
2018-07-21T23:07:47.728Z,20.37
2018-07-21T23:10:52.125Z,20.36
2018-07-21T23:13:56.639Z,20.27
2018-07-21T23:17:00.965Z,20.22
2018-07-21T23:20:06.612Z,20.18
2018-07-21T23:23:11.028Z,20.14
2018-07-21T23:26:15.473Z,20.14
2018-07-21T23:29:20.025Z,20.13
2018-07-21T23:32:24.460Z,20.11
2018-07-21T23:35:28.916Z,20.08
2018-07-21T23:38:33.336Z,20.04
2018-07-21T23:41:37.693Z,20.02
2018-07-21T23:44:42.115Z,20.02
2018-07-21T23:47:46.424Z,20.00
2018-07-21T23:50:51.065Z,19.98
2018-07-21T23:53:55.386Z,19.95
2018-07-21T23:56:59.735Z,19.99
